Time;durP1;ratioP1;P1;durP2;ratioP2;P2;SDS_P1;SDS_P2;PMS_P1;PMS_P2;Temp;Humidity;BMP_temperature;BMP_pressure;BME280_temperature;BME280_humidity;BME280_pressure;Samples;Min_cycle;Max_cycle;Signal;HPM_P1;HPM_P2
2022/08/24 00:00:28;;;;;;;15.02;4.50;;;18.70;99.90;;;;;;5108877;28;20096;-82
2022/08/24 00:02:54;;;;;;;5.45;4.45;;;18.60;99.90;;;;;;5104180;28;20031;-84
2022/08/24 00:05:20;;;;;;;7.63;4.35;;;18.60;99.90;;;;;;5109333;28;20435;-84
2022/08/24 00:07:46;;;;;;;5.05;4.55;;;18.60;99.90;;;;;;5106794;28;20058;-83
2022/08/24 00:10:12;;;;;;;9.68;4.55;;;18.60;99.90;;;;;;5124845;28;20039;-83
2022/08/24 00:12:38;;;;;;;5.03;4.07;;;18.50;99.90;;;;;;5112094;28;20084;-83
2022/08/24 00:15:06;;;;;;;5.93;4.30;;;18.50;99.90;;;;;;5102268;28;20123;-86
2022/08/24 00:17:33;;;;;;;10.43;4.72;;;18.50;99.90;;;;;;5107033;28;20035;-83
2022/08/24 00:19:59;;;;;;;5.35;4.45;;;18.50;99.90;;;;;;5127165;27;20047;-84
2022/08/24 00:22:24;;;;;;;8.10;4.93;;;18.40;99.90;;;;;;5110531;27;20032;-82
2022/08/24 00:24:50;;;;;;;8.02;5.70;;;18.40;99.90;;;;;;5107037;28;20046;-82
2022/08/24 00:27:15;;;;;;;10.95;5.35;;;18.40;99.90;;;;;;5104286;28;20047;-83
2022/08/24 00:29:41;;;;;;;7.88;5.57;;;18.40;99.90;;;;;;5109114;28;20035;-83
2022/08/24 00:32:06;;;;;;;6.28;5.53;;;18.40;99.90;;;;;;5102822;28;20062;-82
2022/08/24 00:34:33;;;;;;;11.35;5.07;;;18.40;99.90;;;;;;5110975;28;20055;-82
2022/08/24 00:36:58;;;;;;;6.50;5.00;;;18.30;99.90;;;;;;5111091;28;20024;-82
2022/08/24 00:39:24;;;;;;;5.60;4.88;;;18.30;99.90;;;;;;5107179;28;20054;-81
2022/08/24 00:41:50;;;;;;;5.03;4.53;;;18.30;99.90;;;;;;5097272;28;20095;-82
2022/08/24 00:44:17;;;;;;;5.70;4.60;;;18.30;99.90;;;;;;5107898;28;20043;-82
2022/08/24 00:47:09;;;;;;;6.90;4.63;;;18.30;99.90;;;;;;5106830;28;20042;-83
2022/08/24 00:49:40;;;;;;;6.75;5.15;;;18.30;99.90;;;;;;5114947;27;20092;-83
2022/08/24 00:52:13;;;;;;;5.78;4.13;;;18.20;99.90;;;;;;5115431;27;20042;-82
2022/08/24 00:54:45;;;;;;;6.63;4.78;;;18.20;99.90;;;;;;5111661;28;20374;-82
2022/08/24 00:57:15;;;;;;;9.40;4.85;;;18.20;99.90;;;;;;5101496;28;20031;-83
2022/08/24 01:00:00;;;;;;;7.28;5.57;;;18.20;99.90;;;;;;5107278;28;20059;-81
2022/08/24 01:02:30;;;;;;;9.80;4.97;;;18.20;99.90;;;;;;5108999;28;20046;-83
2022/08/24 01:05:00;;;;;;;8.27;5.05;;;18.20;99.90;;;;;;5102693;28;20106;-83
2022/08/24 01:07:28;;;;;;;9.77;4.47;;;18.10;99.90;;;;;;5109715;28;20028;-82
2022/08/24 01:09:59;;;;;;;6.72;4.55;;;18.10;99.90;;;;;;5119208;28;20020;-83
2022/08/24 01:12:27;;;;;;;5.45;4.70;;;18.10;99.90;;;;;;5114009;28;20042;-84
2022/08/24 01:14:56;;;;;;;6.03;4.95;;;18.10;99.90;;;;;;5114323;28;20058;-82
2022/08/24 01:20:08;;;;;;;10.07;4.88;;;18.00;99.90;;;;;;5104496;28;20085;-84
2022/08/24 01:22:47;;;;;;;9.02;5.45;;;18.00;99.90;;;;;;5110497;28;20035;-82
2022/08/24 01:25:14;;;;;;;9.15;5.30;;;18.00;99.90;;;;;;5111339;27;20043;-82
2022/08/24 01:27:41;;;;;;;8.15;5.70;;;17.90;99.90;;;;;;5101567;28;20101;-82
2022/08/24 01:30:11;;;;;;;6.38;5.25;;;17.90;99.90;;;;;;5106622;28;20123;-82
2022/08/24 01:32:37;;;;;;;7.43;5.65;;;17.90;99.90;;;;;;5106484;28;20085;-83
2022/08/24 01:35:03;;;;;;;7.88;5.85;;;17.90;99.90;;;;;;5104677;28;20055;-84
2022/08/24 01:37:29;;;;;;;9.85;5.70;;;17.80;99.90;;;;;;5103704;28;20485;-83
2022/08/24 01:39:56;;;;;;;6.80;5.22;;;17.80;99.90;;;;;;5100585;28;20054;-82
2022/08/24 01:42:22;;;;;;;9.02;6.53;;;17.80;99.90;;;;;;5099399;28;20094;-82
2022/08/24 01:44:48;;;;;;;9.82;6.65;;;17.80;99.90;;;;;;5109374;28;20512;-84
2022/08/24 01:47:15;;;;;;;9.02;6.57;;;17.70;99.90;;;;;;5103591;28;20028;-82
2022/08/24 01:49:46;;;;;;;6.90;5.60;;;17.70;99.90;;;;;;5105128;28;20024;-82
2022/08/24 01:52:18;;;;;;;8.75;6.35;;;17.70;99.90;;;;;;5106465;28;20043;-84
2022/08/24 01:54:44;;;;;;;8.05;6.38;;;17.70;99.90;;;;;;5109932;28;20031;-82
2022/08/24 01:57:11;;;;;;;7.13;6.07;;;17.70;99.90;;;;;;5109873;28;20462;-83
2022/08/24 01:59:37;;;;;;;8.88;6.50;;;17.70;99.90;;;;;;5106835;28;20051;-83
2022/08/24 02:02:12;;;;;;;11.07;7.63;;;17.70;99.90;;;;;;5108130;28;20040;-82
2022/08/24 02:04:37;;;;;;;9.82;6.68;;;17.60;99.90;;;;;;5103765;28;20040;-82
2022/08/24 02:07:04;;;;;;;13.82;8.38;;;17.60;99.90;;;;;;5104516;28;20067;-82
2022/08/24 02:09:30;;;;;;;12.02;8.85;;;17.60;99.90;;;;;;5107431;28;20048;-82
2022/08/24 02:11:56;;;;;;;10.63;8.77;;;17.60;99.90;;;;;;5098870;28;20464;-81
2022/08/24 02:14:21;;;;;;;13.27;9.50;;;17.60;99.90;;;;;;5100967;28;20048;-82
2022/08/24 02:16:46;;;;;;;20.23;9.70;;;17.60;99.90;;;;;;5109508;28;20662;-81
2022/08/24 02:19:12;;;;;;;13.45;8.80;;;17.60;99.90;;;;;;5104651;28;20054;-81
2022/08/24 02:21:39;;;;;;;9.68;8.43;;;17.60;99.90;;;;;;5106052;28;20562;-82
2022/08/24 02:24:04;;;;;;;11.90;8.73;;;17.60;99.90;;;;;;5107918;28;20034;-81
2022/08/24 02:26:30;;;;;;;10.93;8.55;;;17.60;99.90;;;;;;5107986;28;20027;-81
2022/08/24 02:28:55;;;;;;;13.13;8.95;;;17.60;99.90;;;;;;5107940;28;20039;-81
2022/08/24 02:31:21;;;;;;;9.27;7.53;;;17.50;99.90;;;;;;5105197;28;20050;-83
2022/08/24 02:33:46;;;;;;;10.43;7.82;;;17.60;99.90;;;;;;5109153;28;20696;-83
2022/08/24 02:36:13;;;;;;;9.95;8.05;;;17.50;99.90;;;;;;5104588;28;20188;-82
2022/08/24 02:38:38;;;;;;;10.52;7.47;;;17.50;99.90;;;;;;5112039;28;20058;-82
2022/08/24 02:41:04;;;;;;;9.15;6.82;;;17.50;99.90;;;;;;5105290;28;20390;-84
2022/08/24 02:43:30;;;;;;;9.52;7.20;;;17.50;99.90;;;;;;5108710;28;20491;-82
2022/08/24 02:45:56;;;;;;;10.20;6.93;;;17.50;99.90;;;;;;5104252;28;20039;-83
2022/08/24 02:48:21;;;;;;;8.55;5.82;;;17.50;99.90;;;;;;5108129;28;20040;-82
2022/08/24 02:50:50;;;;;;;13.90;6.50;;;17.50;99.90;;;;;;5109298;28;20027;-83
2022/08/24 02:53:17;;;;;;;10.65;6.80;;;17.50;99.90;;;;;;5113191;28;20389;-83
2022/08/24 02:55:43;;;;;;;10.35;6.85;;;17.40;99.90;;;;;;5106051;28;20028;-82
2022/08/24 02:58:10;;;;;;;8.15;6.22;;;17.40;99.90;;;;;;5114442;28;20046;-82
2022/08/24 03:00:37;;;;;;;12.93;7.47;;;17.40;99.90;;;;;;5109844;28;20569;-82
2022/08/24 03:03:03;;;;;;;12.00;6.95;;;17.40;99.90;;;;;;5107856;28;20489;-83
2022/08/24 03:05:29;;;;;;;8.77;7.03;;;17.40;99.90;;;;;;5105421;28;20046;-84
2022/08/24 03:07:56;;;;;;;10.02;6.70;;;17.30;99.90;;;;;;5113176;28;20028;-81
2022/08/24 03:10:22;;;;;;;8.75;6.20;;;17.30;99.90;;;;;;5108643;28;20027;-83
2022/08/24 03:12:49;;;;;;;9.90;5.63;;;17.30;99.90;;;;;;5104650;28;20108;-84
2022/08/24 03:15:15;;;;;;;6.63;5.90;;;17.30;99.90;;;;;;5102000;28;20060;-84
2022/08/24 03:17:41;;;;;;;9.05;6.50;;;17.30;99.90;;;;;;5106601;28;20023;-83
2022/08/24 03:20:10;;;;;;;16.98;6.60;;;17.30;99.90;;;;;;5112012;27;20429;-83
2022/08/24 03:22:37;;;;;;;10.00;6.65;;;17.30;99.90;;;;;;5101425;28;20040;-82
2022/08/24 03:25:03;;;;;;;7.05;5.90;;;17.20;99.90;;;;;;5112181;28;20020;-82
2022/08/24 03:27:29;;;;;;;7.72;6.10;;;17.20;99.90;;;;;;5094900;28;20173;-82
2022/08/24 03:29:54;;;;;;;10.35;5.97;;;17.20;99.90;;;;;;5109758;28;20466;-84
2022/08/24 03:32:20;;;;;;;8.23;5.85;;;17.20;99.90;;;;;;5100901;28;20075;-83
2022/08/24 03:34:45;;;;;;;7.28;5.88;;;17.20;99.90;;;;;;5106819;28;20028;-81
2022/08/24 03:37:11;;;;;;;8.98;5.65;;;17.20;99.90;;;;;;5110958;28;20032;-82
2022/08/24 03:39:37;;;;;;;7.18;5.55;;;17.10;99.90;;;;;;5105637;28;20394;-82
2022/08/24 03:42:03;;;;;;;8.63;4.85;;;17.10;99.90;;;;;;5114680;28;20130;-84
2022/08/24 03:44:28;;;;;;;12.23;5.55;;;17.10;99.90;;;;;;5122280;28;20031;-83
2022/08/24 03:46:54;;;;;;;6.80;5.28;;;17.10;99.90;;;;;;5113637;28;20043;-82
2022/08/24 03:49:20;;;;;;;9.40;6.05;;;17.10;99.90;;;;;;5113320;28;20027;-83
2022/08/24 03:51:45;;;;;;;13.60;7.40;;;17.10;99.90;;;;;;5112964;28;20488;-83
2022/08/24 03:54:12;;;;;;;7.70;5.30;;;17.00;99.90;;;;;;5111975;28;20063;-82
2022/08/24 03:56:38;;;;;;;8.45;5.90;;;17.10;99.90;;;;;;5105034;27;20056;-82
2022/08/24 03:59:06;;;;;;;7.68;5.93;;;17.00;99.90;;;;;;5112194;28;20079;-81
2022/08/24 04:01:32;;;;;;;8.23;5.30;;;17.00;99.90;;;;;;5112701;28;20031;-81
2022/08/24 04:03:58;;;;;;;9.82;5.60;;;17.00;99.90;;;;;;5109826;28;20058;-81
2022/08/24 04:06:23;;;;;;;6.38;5.35;;;17.00;99.90;;;;;;5102481;28;20063;-83
2022/08/24 04:08:50;;;;;;;7.60;5.60;;;17.00;99.90;;;;;;5110620;28;20466;-83
2022/08/24 04:11:21;;;;;;;10.68;5.57;;;17.00;99.90;;;;;;5111975;28;20042;-82
2022/08/24 04:13:50;;;;;;;6.80;5.82;;;16.90;99.90;;;;;;5112294;27;20032;-83
2022/08/24 04:16:19;;;;;;;8.27;5.63;;;16.90;99.90;;;;;;5108991;28;20071;-82
2022/08/24 04:18:45;;;;;;;7.93;5.65;;;16.90;99.90;;;;;;5109699;28;20550;-81
2022/08/24 04:21:23;;;;;;;8.75;5.20;;;16.90;99.90;;;;;;5111974;28;20107;-82
2022/08/24 04:23:51;;;;;;;8.15;6.00;;;16.90;99.90;;;;;;5112381;28;20777;-82
2022/08/24 04:26:18;;;;;;;7.18;5.70;;;16.90;99.90;;;;;;5103540;28;20035;-81
2022/08/24 04:28:43;;;;;;;7.65;5.57;;;16.90;99.90;;;;;;5113617;28;20036;-82
2022/08/24 04:31:09;;;;;;;7.10;5.95;;;16.90;99.90;;;;;;5110613;27;20123;-80
2022/08/24 04:33:35;;;;;;;7.18;4.93;;;16.90;99.90;;;;;;5113394;28;20042;-80
2022/08/24 04:36:01;;;;;;;6.63;5.38;;;16.90;99.90;;;;;;5112855;28;20023;-78
2022/08/24 04:38:28;;;;;;;9.70;6.30;;;16.90;99.90;;;;;;5113927;28;20035;-81
2022/08/24 04:40:54;;;;;;;6.53;5.88;;;16.90;99.90;;;;;;5109055;28;20027;-82
2022/08/24 04:43:19;;;;;;;8.30;5.80;;;16.90;99.90;;;;;;5103088;28;20030;-81
2022/08/24 04:45:46;;;;;;;8.30;6.25;;;17.00;99.90;;;;;;5106802;28;20016;-80
2022/08/24 04:48:14;;;;;;;9.38;6.18;;;17.00;99.90;;;;;;5102343;28;20063;-81
2022/08/24 04:50:42;;;;;;;7.28;5.43;;;17.00;99.90;;;;;;5100390;28;20444;-80
2022/08/24 04:53:09;;;;;;;7.85;5.68;;;17.00;99.90;;;;;;5103372;28;20139;-82
2022/08/24 04:55:42;;;;;;;6.63;4.97;;;17.10;99.90;;;;;;5097364;28;20110;-82
2022/08/24 04:58:09;;;;;;;8.32;5.70;;;17.00;99.90;;;;;;5106959;28;20055;-82
2022/08/24 05:00:35;;;;;;;6.50;5.75;;;17.10;99.90;;;;;;5104101;28;20027;-83
2022/08/24 05:03:00;;;;;;;6.28;5.68;;;17.10;99.90;;;;;;5102963;28;20114;-83
2022/08/24 05:05:26;;;;;;;7.82;5.40;;;17.10;99.90;;;;;;5098408;28;20378;-81
2022/08/24 05:07:51;;;;;;;7.18;5.60;;;17.10;99.90;;;;;;5096742;28;20042;-82
2022/08/24 05:10:17;;;;;;;8.45;5.35;;;17.20;99.90;;;;;;5099896;28;20031;-82
2022/08/24 05:12:43;;;;;;;6.90;6.20;;;17.30;99.90;;;;;;5102898;28;20032;-83
2022/08/24 05:15:09;;;;;;;6.90;5.50;;;17.30;99.90;;;;;;5103433;28;20053;-82
2022/08/24 05:17:35;;;;;;;9.38;5.97;;;17.30;99.90;;;;;;5102434;28;20032;-83
2022/08/24 05:20:00;;;;;;;8.48;5.68;;;17.30;99.90;;;;;;5100040;28;20103;-83
2022/08/24 05:22:26;;;;;;;7.85;5.75;;;17.40;99.90;;;;;;5101418;28;20168;-82
2022/08/24 05:24:51;;;;;;;8.98;6.38;;;17.40;99.90;;;;;;5104897;27;20062;-83
2022/08/24 05:27:17;;;;;;;9.63;6.00;;;17.50;99.90;;;;;;5102216;28;20032;-83
2022/08/24 05:29:44;;;;;;;7.75;5.97;;;17.50;99.90;;;;;;5098589;28;20036;-82
2022/08/24 05:32:10;;;;;;;10.65;6.72;;;17.50;99.90;;;;;;5101993;28;20031;-83
2022/08/24 05:34:35;;;;;;;8.15;6.30;;;17.60;99.90;;;;;;5104023;28;20529;-83
2022/08/24 05:37:01;;;;;;;10.55;5.70;;;17.70;99.90;;;;;;5101621;28;20032;-84
2022/08/24 05:39:27;;;;;;;8.15;5.95;;;17.70;99.90;;;;;;5108535;28;20042;-84
2022/08/24 05:41:53;;;;;;;8.65;5.50;;;17.70;99.90;;;;;;5108913;28;20038;-85
2022/08/24 05:44:20;;;;;;;9.73;6.00;;;17.80;99.90;;;;;;5108859;28;20024;-83
2022/08/24 05:46:45;;;;;;;8.40;6.57;;;17.80;99.90;;;;;;5109482;28;20023;-83
2022/08/24 05:49:11;;;;;;;9.40;6.78;;;17.90;99.90;;;;;;5106354;28;20542;-83
2022/08/24 05:51:38;;;;;;;9.68;7.88;;;17.90;99.90;;;;;;5101424;28;20481;-83
2022/08/24 05:54:05;;;;;;;13.18;9.18;;;18.00;99.90;;;;;;5108688;28;20066;-83
2022/08/24 05:56:30;;;;;;;11.13;8.90;;;18.00;99.90;;;;;;5107451;28;20019;-84
2022/08/24 05:58:56;;;;;;;10.07;7.90;;;18.10;99.90;;;;;;5107863;28;20035;-84
2022/08/24 06:01:24;;;;;;;11.18;8.23;;;18.20;99.90;;;;;;5108498;28;20508;-84
2022/08/24 06:03:51;;;;;;;11.35;8.15;;;18.20;99.90;;;;;;5108398;28;20035;-83
2022/08/24 06:06:17;;;;;;;12.70;9.40;;;18.30;99.90;;;;;;5108948;28;20069;-85
2022/08/24 06:08:47;;;;;;;16.67;10.95;;;18.40;99.90;;;;;;5108383;28;20028;-84
2022/08/24 06:11:24;;;;;;;11.32;10.13;;;18.50;99.90;;;;;;5105497;28;20073;-83
2022/08/24 06:13:56;;;;;;;14.27;9.50;;;18.60;99.90;;;;;;5099642;28;20096;-83
2022/08/24 06:16:22;;;;;;;11.85;9.48;;;18.70;99.90;;;;;;5086980;28;20024;-84
2022/08/24 06:18:49;;;;;;;13.25;10.20;;;18.80;99.90;;;;;;5092373;28;20114;-82
2022/08/24 06:21:20;;;;;;;9.75;8.32;;;18.80;99.90;;;;;;5106239;28;20499;-81
2022/08/24 06:23:46;;;;;;;10.85;9.00;;;19.00;99.90;;;;;;5108262;28;20039;-82
2022/08/24 06:28:59;;;;;;;11.13;9.13;;;19.20;99.90;;;;;;5098709;28;20121;-83
2022/08/24 06:31:26;;;;;;;11.75;9.18;;;19.20;99.90;;;;;;5108551;28;20024;-82
2022/08/24 06:33:52;;;;;;;11.73;7.95;;;19.30;99.90;;;;;;5108965;28;20493;-82
2022/08/24 06:36:17;;;;;;;10.45;8.82;;;19.40;99.90;;;;;;5107809;28;20113;-83
2022/08/24 06:38:43;;;;;;;14.63;8.27;;;19.50;99.90;;;;;;5108587;28;20093;-85
2022/08/24 06:41:09;;;;;;;13.35;8.20;;;19.60;99.90;;;;;;5108995;28;20087;-84
2022/08/24 06:43:35;;;;;;;11.32;9.27;;;19.70;99.90;;;;;;5104526;28;20043;-85
2022/08/24 06:46:01;;;;;;;13.00;7.97;;;19.80;99.90;;;;;;5101241;28;20027;-83
2022/08/24 06:48:29;;;;;;;11.48;8.05;;;19.90;99.90;;;;;;5108932;28;20046;-83
2022/08/24 06:50:54;;;;;;;10.93;8.30;;;19.90;99.90;;;;;;5109451;28;20466;-84
2022/08/24 06:53:20;;;;;;;8.52;7.72;;;20.00;99.90;;;;;;5107549;28;20162;-85
2022/08/24 06:55:56;;;;;;;8.43;7.00;;;20.10;99.90;;;;;;5109502;28;20389;-83
2022/08/24 06:58:24;;;;;;;8.93;6.50;;;20.10;99.90;;;;;;5102029;28;20038;-83
2022/08/24 07:00:50;;;;;;;8.90;7.53;;;20.20;99.90;;;;;;5109323;28;20020;-84
2022/08/24 07:03:16;;;;;;;8.80;6.18;;;20.30;99.90;;;;;;5108639;28;20023;-84
2022/08/24 07:05:53;;;;;;;7.97;6.43;;;20.30;99.90;;;;;;5110255;28;20030;-84
2022/08/24 07:08:19;;;;;;;7.75;5.78;;;20.50;99.90;;;;;;5112831;28;20423;-83
2022/08/24 07:10:45;;;;;;;9.45;6.22;;;20.60;99.90;;;;;;5115270;28;20047;-82
2022/08/24 07:13:13;;;;;;;9.98;6.45;;;20.70;99.90;;;;;;5116578;28;20077;-82
2022/08/24 07:15:42;;;;;;;8.18;5.85;;;20.80;99.90;;;;;;5133143;28;20012;-82
2022/08/24 07:18:14;;;;;;;14.13;5.70;;;20.80;99.90;;;;;;5131944;28;20020;-82
2022/08/24 07:20:41;;;;;;;8.27;5.22;;;20.90;99.90;;;;;;5126672;28;20047;-82
2022/08/24 07:23:09;;;;;;;7.28;5.18;;;21.00;99.90;;;;;;5126030;28;20027;-83
2022/08/24 07:25:35;;;;;;;7.00;4.40;;;21.10;99.90;;;;;;5120071;28;20027;-81
2022/08/24 07:28:01;;;;;;;6.82;4.97;;;21.20;99.90;;;;;;5119968;28;20028;-78
2022/08/24 07:30:27;;;;;;;11.82;7.00;;;21.30;99.90;;;;;;5112572;28;20046;-78
2022/08/24 07:32:53;;;;;;;60.42;28.60;;;21.40;99.90;;;;;;5112554;28;20088;-79
2022/08/24 07:35:19;;;;;;;12.43;6.63;;;21.50;99.90;;;;;;5113524;28;20091;-82
2022/08/24 07:37:45;;;;;;;5.15;3.85;;;21.60;99.90;;;;;;5108256;28;20191;-81
2022/08/24 07:40:11;;;;;;;6.90;3.88;;;21.80;99.90;;;;;;5112045;28;20034;-81
2022/08/24 07:42:38;;;;;;;7.35;4.63;;;21.90;99.90;;;;;;5112345;28;20028;-83
2022/08/24 07:45:04;;;;;;;8.48;5.32;;;22.00;99.90;;;;;;5109749;28;20112;-81
2022/08/24 07:47:30;;;;;;;6.20;4.38;;;22.20;99.90;;;;;;5108466;28;20039;-87
2022/08/24 07:49:56;;;;;;;8.75;5.13;;;22.30;99.90;;;;;;5111576;28;20096;-88
2022/08/24 07:52:21;;;;;;;10.00;3.88;;;22.40;99.90;;;;;;5100814;28;20119;-88
2022/08/24 07:54:49;;;;;;;9.77;4.10;;;22.50;99.90;;;;;;5109428;28;20028;-89
2022/08/24 07:57:14;;;;;;;6.18;4.18;;;22.60;99.90;;;;;;5110020;28;20042;-89
2022/08/24 07:59:40;;;;;;;8.15;3.90;;;22.70;99.90;;;;;;5112346;28;20031;-88
2022/08/24 08:02:07;;;;;;;6.45;4.20;;;22.80;99.90;;;;;;5112768;28;20019;-87
2022/08/24 08:04:42;;;;;;;5.50;2.92;;;22.90;99.90;;;;;;5111779;28;20024;-88
2022/08/24 08:07:13;;;;;;;10.93;3.58;;;23.00;99.80;;;;;;5112440;28;20045;-89
2022/08/24 08:09:41;;;;;;;8.23;3.75;;;23.00;99.70;;;;;;5113647;28;20116;-90
2022/08/24 08:12:09;;;;;;;6.82;3.53;;;23.10;99.20;;;;;;5111191;28;20031;-87
2022/08/24 08:14:36;;;;;;;8.20;3.70;;;23.20;99.50;;;;;;5108760;28;20620;-88
2022/08/24 08:17:06;;;;;;;5.80;3.42;;;23.30;99.00;;;;;;5106724;28;20012;-88
2022/08/24 08:19:32;;;;;;;7.40;3.35;;;23.40;98.90;;;;;;5110096;28;20367;-88
2022/08/24 08:24:47;;;;;;;4.00;3.47;;;23.60;98.30;;;;;;5111093;28;20062;-89
2022/08/24 08:27:15;;;;;;;8.38;2.88;;;23.80;98.50;;;;;;5110098;28;20035;-90
2022/08/24 08:29:42;;;;;;;5.43;2.67;;;24.00;98.50;;;;;;5111371;28;20015;-89
2022/08/24 08:32:18;;;;;;;7.95;2.58;;;24.10;98.40;;;;;;5110561;28;20028;-89
2022/08/24 08:34:44;;;;;;;5.53;2.45;;;24.20;97.80;;;;;;5111416;28;20036;-87
2022/08/24 08:37:11;;;;;;;10.30;2.78;;;24.30;97.80;;;;;;5101339;28;20024;-88
2022/08/24 08:39:44;;;;;;;4.60;2.67;;;24.50;97.10;;;;;;5108633;28;20050;-88
2022/08/24 08:43:12;;;;;;;6.00;3.33;;;24.60;96.80;;;;;;5107848;28;20035;-89
2022/08/24 08:46:06;;;;;;;4.45;2.50;;;24.70;96.60;;;;;;5115584;27;20067;-89
2022/08/24 08:56:46;;;;;;;4.47;3.10;;;24.90;96.20;;;;;;5113334;28;20038;-88
2022/08/24 08:59:49;;;;;;;8.40;2.78;;;25.10;96.40;;;;;;5114095;28;20087;-89
2022/08/24 09:02:44;;;;;;;7.97;2.70;;;25.40;96.20;;;;;;5110750;28;20504;-90
2022/08/24 09:06:10;;;;;;;;;;;;;;;;;;;;;
2022/08/24 09:09:35;;;;;;;4.60;2.25;;;25.40;95.50;;;;;;5111066;28;20022;-89
2022/08/24 09:12:42;;;;;;;6.07;2.17;;;25.60;95.30;;;;;;5087179;28;20059;-87
2022/08/24 09:15:53;;;;;;;5.00;2.13;;;25.60;94.80;;;;;;5070188;28;20048;-88
2022/08/24 09:18:56;;;;;;;6.70;2.08;;;25.80;94.50;;;;;;4989785;28;20030;-88
2022/08/24 09:22:40;;;;;;;4.82;1.95;;;26.00;93.60;;;;;;4976569;28;20038;-87
2022/08/24 09:25:42;;;;;;;3.78;1.65;;;25.80;93.30;;;;;;5020235;28;20057;-88
2022/08/24 09:32:28;;;;;;;3.53;1.77;;;26.10;93.30;;;;;;4956529;28;20089;-86
2022/08/24 09:35:40;;;;;;;;;;;;;;;;;;;;;
2022/08/24 09:38:17;;;;;;;3.38;1.95;;;26.50;93.60;;;;;;5112103;28;20027;-87
2022/08/24 09:41:16;;;;;;;5.22;1.80;;;26.80;91.60;;;;;;5112775;28;20023;-88
2022/08/24 09:44:16;;;;;;;2.67;1.60;;;27.00;92.10;;;;;;5123845;28;20016;-87
2022/08/24 09:47:15;;;;;;;5.35;1.85;;;27.20;92.40;;;;;;5130604;28;20024;-85
2022/08/24 09:50:26;;;;;;;3.22;1.40;;;27.40;91.90;;;;;;5129438;28;20103;-85
2022/08/24 09:53:12;;;;;;;5.40;1.42;;;27.60;90.80;;;;;;5108429;28;20084;-86
2022/08/24 09:56:00;;;;;;;9.82;1.60;;;27.70;90.50;;;;;;5100641;28;20024;-84
2022/08/24 09:58:56;;;;;;;2.70;1.40;;;27.60;90.80;;;;;;5114297;28;20028;-85
2022/08/24 10:01:46;;;;;;;3.50;1.48;;;27.60;90.90;;;;;;5110878;28;20628;-85
2022/08/24 10:04:26;;;;;;;2.63;1.52;;;27.50;91.00;;;;;;5111203;28;20040;-85
2022/08/24 10:07:20;;;;;;;11.90;1.73;;;27.30;90.80;;;;;;5109773;28;20031;-85
2022/08/24 10:09:52;;;;;;;2.72;1.42;;;27.30;90.80;;;;;;5095106;28;20105;-88
2022/08/24 10:12:52;;;;;;;3.78;1.63;;;27.30;91.00;;;;;;5099389;28;20067;-85
2022/08/24 10:15:28;;;;;;;3.10;1.70;;;27.40;91.00;;;;;;5098532;28;20066;-85
2022/08/24 10:18:24;;;;;;;4.40;1.52;;;27.60;90.70;;;;;;5109756;28;20028;-84
2022/08/24 10:21:25;;;;;;;3.67;1.50;;;27.70;90.40;;;;;;5105541;28;20031;-83
2022/08/24 10:24:29;;;;;;;2.30;1.20;;;27.90;90.90;;;;;;5109653;28;20046;-84
2022/08/24 10:27:22;;;;;;;4.47;1.38;;;28.00;89.60;;;;;;5107937;28;20080;-83
2022/08/24 10:30:08;;;;;;;5.20;1.50;;;28.20;90.00;;;;;;5109162;28;20079;-82
2022/08/24 10:33:04;;;;;;;6.13;1.25;;;28.40;87.40;;;;;;5109030;28;20036;-79
2022/08/24 10:35:42;;;;;;;3.42;2.08;;;28.40;89.40;;;;;;5100675;28;20031;-77
2022/08/24 10:41:32;;;;;;;3.65;1.55;;;28.50;88.10;;;;;;5102658;28;20565;-77
2022/08/24 10:44:29;;;;;;;4.93;1.58;;;28.60;86.60;;;;;;5112260;28;20028;-77
2022/08/24 10:46:59;;;;;;;4.63;1.55;;;28.40;85.60;;;;;;5122887;28;20039;-76
2022/08/24 10:49:34;;;;;;;8.77;2.10;;;28.40;87.10;;;;;;5126591;28;20043;-78
2022/08/24 10:52:30;;;;;;;2.20;1.50;;;28.50;86.70;;;;;;5115437;28;20027;-79
2022/08/24 10:55:09;;;;;;;2.85;1.85;;;28.60;86.90;;;;;;5115025;28;20049;-81
2022/08/24 10:57:43;;;;;;;2.33;1.48;;;28.80;86.00;;;;;;5112655;28;20028;-78
2022/08/24 11:00:14;;;;;;;9.32;1.33;;;28.60;84.40;;;;;;5111925;28;20073;-83
2022/08/24 11:02:42;;;;;;;3.95;1.77;;;28.50;85.30;;;;;;5110272;28;20023;-81
2022/08/24 11:05:15;;;;;;;7.05;1.63;;;28.70;86.20;;;;;;5111147;28;20806;-80
2022/08/24 11:08:03;;;;;;;6.75;2.30;;;28.70;86.40;;;;;;5112474;28;20544;-83
2022/08/24 11:10:32;;;;;;;3.05;1.55;;;29.00;85.20;;;;;;5112145;28;20465;-81
2022/08/24 11:13:21;;;;;;;3.75;1.67;;;29.00;83.80;;;;;;5112408;28;20039;-86
2022/08/24 11:15:50;;;;;;;4.75;1.60;;;29.00;84.50;;;;;;5113492;28;20028;-86
2022/08/24 11:18:16;;;;;;;4.95;1.73;;;29.00;83.70;;;;;;5115350;27;20448;-85
2022/08/24 11:20:45;;;;;;;5.28;1.75;;;28.90;85.10;;;;;;5114273;28;20020;-83
2022/08/24 11:23:19;;;;;;;2.60;1.50;;;28.80;85.30;;;;;;5095746;28;20039;-84
2022/08/24 11:25:57;;;;;;;3.83;1.45;;;28.40;83.30;;;;;;5098600;28;20035;-83
2022/08/24 11:28:39;;;;;;;2.83;1.23;;;28.30;85.40;;;;;;5115624;28;20501;-83
2022/08/24 11:31:11;;;;;;;4.65;1.63;;;28.10;83.90;;;;;;5114062;27;20428;-85
2022/08/24 11:33:51;;;;;;;4.13;1.90;;;28.00;84.80;;;;;;5119906;28;20043;-85
2022/08/24 11:36:20;;;;;;;5.25;1.45;;;28.00;85.00;;;;;;5122394;28;20409;-84
2022/08/24 11:38:46;;;;;;;3.13;1.38;;;28.00;84.90;;;;;;5117755;28;20019;-82
2022/08/24 11:41:48;;;;;;;3.38;1.30;;;27.90;84.40;;;;;;5117909;28;20027;-80
2022/08/24 11:44:43;;;;;;;5.35;1.50;;;28.00;83.20;;;;;;5081467;28;20634;-81
2022/08/24 11:47:19;;;;;;;2.53;1.67;;;27.80;83.50;;;;;;5106784;28;20123;-83
2022/08/24 11:50:19;;;;;;;4.53;1.27;;;27.90;85.30;;;;;;5111056;28;20031;-82
2022/08/24 11:52:53;;;;;;;2.13;1.35;;;28.00;83.90;;;;;;5111591;28;20539;-82
2022/08/24 11:55:25;;;;;;;2.78;1.52;;;28.20;83.40;;;;;;5111865;28;20027;-83
2022/08/24 11:58:04;;;;;;;3.33;1.52;;;28.40;84.00;;;;;;5110193;28;20088;-81
2022/08/24 12:00:44;;;;;;;7.93;1.35;;;28.60;84.80;;;;;;5111212;28;20067;-81
2022/08/24 12:03:38;;;;;;;2.28;1.10;;;28.70;82.30;;;;;;5109045;28;20406;-80
2022/08/24 12:06:06;;;;;;;2.78;1.30;;;29.00;82.10;;;;;;5111222;28;20028;-79
2022/08/24 12:08:48;;;;;;;7.80;1.98;;;29.50;83.20;;;;;;5111363;28;20071;-79
2022/08/24 12:11:28;;;;;;;4.93;1.30;;;29.80;81.70;;;;;;5111344;28;20032;-80
2022/08/24 12:14:03;;;;;;;3.47;1.52;;;30.10;80.00;;;;;;5111600;28;20088;-79
2022/08/24 12:17:01;;;;;;;1.80;1.40;;;30.10;79.20;;;;;;5108823;28;20553;-82
2022/08/24 12:19:39;;;;;;;2.70;1.67;;;29.80;79.20;;;;;;5110873;28;20529;-79
2022/08/24 12:22:08;;;;;;;4.40;1.05;;;29.50;79.70;;;;;;5111289;28;20127;-82
2022/08/24 12:24:48;;;;;;;2.40;1.55;;;29.30;80.90;;;;;;5098932;28;20118;-83
2022/08/24 12:27:25;;;;;;;5.10;1.50;;;29.10;80.50;;;;;;5107222;28;20034;-81
2022/08/24 12:30:03;;;;;;;4.32;1.30;;;28.90;83.30;;;;;;5104243;28;20028;-80
2022/08/24 12:32:36;;;;;;;3.55;1.48;;;29.00;81.40;;;;;;5110496;28;20032;-79
2022/08/24 12:35:17;;;;;;;2.42;1.38;;;29.20;81.00;;;;;;5111671;28;20372;-79
2022/08/24 12:37:54;;;;;;;5.13;1.30;;;29.40;82.80;;;;;;5109605;28;20020;-79
2022/08/24 12:40:30;;;;;;;3.75;1.33;;;29.60;82.10;;;;;;5110163;28;20427;-79
2022/08/24 12:43:11;;;;;;;5.60;1.63;;;29.80;79.10;;;;;;5110590;28;20047;-80
2022/08/24 12:45:36;;;;;;;2.92;1.55;;;30.00;80.00;;;;;;5090378;28;20020;-82
2022/08/24 12:48:32;;;;;;;5.10;1.52;;;30.20;78.40;;;;;;5107278;28;20073;-82
2022/08/24 12:51:23;;;;;;;1.98;1.20;;;30.40;77.90;;;;;;5102975;28;20047;-79
2022/08/24 12:54:18;;;;;;;3.60;1.52;;;30.70;80.10;;;;;;5111079;28;20032;-79
2022/08/24 12:57:14;;;;;;;4.50;1.42;;;30.90;77.10;;;;;;5110142;28;20028;-79
2022/08/24 12:59:49;;;;;;;2.17;1.15;;;31.10;76.30;;;;;;5110345;28;20486;-82
2022/08/24 13:02:17;;;;;;;2.55;1.42;;;31.10;76.70;;;;;;5109564;28;20067;-83
2022/08/24 13:04:49;;;;;;;3.15;1.38;;;31.20;78.60;;;;;;5109495;28;20114;-79
2022/08/24 13:07:20;;;;;;;4.20;1.80;;;31.20;75.20;;;;;;5109152;28;20035;-80
2022/08/24 13:09:51;;;;;;;2.33;1.33;;;31.30;77.90;;;;;;5109316;28;20030;-81
2022/08/24 13:12:45;;;;;;;6.47;1.63;;;31.30;76.60;;;;;;5108020;28;20053;-83
2022/08/24 13:15:22;;;;;;;4.18;1.50;;;31.20;76.20;;;;;;5109064;28;20051;-84
2022/08/24 13:17:52;;;;;;;2.20;1.40;;;31.00;75.30;;;;;;5110027;28;20027;-85
2022/08/24 13:20:33;;;;;;;2.58;1.40;;;30.80;77.50;;;;;;5109878;27;20034;-80
2022/08/24 13:23:10;;;;;;;2.65;1.30;;;30.60;77.60;;;;;;5110365;28;20046;-79
2022/08/24 13:26:00;;;;;;;2.80;1.30;;;30.70;76.10;;;;;;5107828;28;20107;-79
2022/08/24 13:28:28;;;;;;;5.63;1.65;;;30.80;75.30;;;;;;5109642;28;20053;-79
2022/08/24 13:31:31;;;;;;;1.83;1.10;;;31.00;75.40;;;;;;5109835;28;20141;-78
2022/08/24 13:34:17;;;;;;;;;;;31.30;75.00;;;;;;5110574;28;20028;-79
2022/08/24 13:37:10;;;;;;;1.77;0.82;;;31.40;74.30;;;;;;5109332;28;19954;-79
2022/08/24 13:39:54;;;;;;;;;;;31.50;73.30;;;;;;5110508;28;20085;-80
2022/08/24 13:42:39;;;;;;;3.25;1.33;;;31.60;73.60;;;;;;5109951;28;19908;-79